createdAt,value
2022-09-14T00:00:37.691Z,0.00
2022-09-14T00:01:33.531Z,0.00
2022-09-14T00:02:28.752Z,0.00
2022-09-14T00:03:23.901Z,0.00
2022-09-14T00:04:18.977Z,0.00
2022-09-14T00:05:14.238Z,0.00
2022-09-14T00:06:09.633Z,0.00
2022-09-14T00:07:04.967Z,0.00
2022-09-14T00:08:00.091Z,0.00
2022-09-14T00:08:55.864Z,0.00
2022-09-14T00:09:50.953Z,0.00
2022-09-14T00:10:46.365Z,0.00
2022-09-14T00:11:41.332Z,0.00
2022-09-14T00:12:36.415Z,0.00
2022-09-14T00:13:31.485Z,0.00
2022-09-14T00:14:26.606Z,0.00
2022-09-14T00:15:21.836Z,0.00
2022-09-14T00:16:16.737Z,0.00
2022-09-14T00:17:11.794Z,0.00
2022-09-14T00:18:07.034Z,0.00
2022-09-14T00:19:02.131Z,0.00
2022-09-14T00:19:57.220Z,0.00
2022-09-14T00:20:52.345Z,0.00
2022-09-14T00:21:47.343Z,0.00
2022-09-14T00:22:42.323Z,0.00
2022-09-14T00:23:37.340Z,0.00
2022-09-14T00:24:32.572Z,0.00
2022-09-14T00:25:27.767Z,0.00
2022-09-14T00:26:22.900Z,0.00
2022-09-14T00:27:18.101Z,0.00
2022-09-14T00:28:13.109Z,0.00
2022-09-14T00:29:08.180Z,0.00
2022-09-14T00:30:03.249Z,0.00
2022-09-14T00:30:58.257Z,0.00
2022-09-14T00:31:53.539Z,0.00
2022-09-14T00:32:48.359Z,0.00
2022-09-14T00:33:43.439Z,0.00
2022-09-14T00:34:38.527Z,0.00
2022-09-14T00:35:33.796Z,0.00
2022-09-14T00:36:29.069Z,0.00
2022-09-14T00:37:24.154Z,0.00
2022-09-14T00:38:20.595Z,0.00
2022-09-14T00:39:15.839Z,0.00
2022-09-14T00:40:11.696Z,0.00
2022-09-14T00:41:06.798Z,0.00
2022-09-14T00:42:01.908Z,0.00
2022-09-14T00:42:57.685Z,0.00
2022-09-14T00:43:52.942Z,0.00
2022-09-14T00:44:48.721Z,0.00
2022-09-14T00:45:43.938Z,0.00
2022-09-14T00:46:39.209Z,0.00
2022-09-14T00:47:34.994Z,0.00
2022-09-14T00:48:30.236Z,0.00
2022-09-14T00:49:25.585Z,0.00
2022-09-14T00:50:21.922Z,0.00
2022-09-14T00:51:17.192Z,0.00
2022-09-14T00:52:12.986Z,0.00
2022-09-14T00:53:08.203Z,0.00
2022-09-14T00:54:03.310Z,0.00
2022-09-14T00:54:59.126Z,0.00
2022-09-14T00:55:54.373Z,0.00
2022-09-14T00:56:50.333Z,0.00
2022-09-14T00:57:45.301Z,0.00
2022-09-14T00:58:40.560Z,0.00
2022-09-14T00:59:36.363Z,0.00
2022-09-14T01:00:31.601Z,0.00
2022-09-14T01:01:27.142Z,0.00
2022-09-14T01:02:23.044Z,0.00
2022-09-14T01:03:18.183Z,0.00
2022-09-14T01:04:13.980Z,0.00
2022-09-14T01:05:09.191Z,0.00
2022-09-14T01:06:04.432Z,0.00
2022-09-14T01:07:00.148Z,0.00
2022-09-14T01:07:55.379Z,0.00
2022-09-14T01:08:51.175Z,0.00
2022-09-14T01:09:46.389Z,0.00
2022-09-14T01:10:41.757Z,0.00
2022-09-14T01:11:37.453Z,0.00
2022-09-14T01:12:32.699Z,0.00
2022-09-14T01:13:27.795Z,0.00
2022-09-14T01:14:24.248Z,0.00
2022-09-14T01:15:19.506Z,0.00
2022-09-14T01:16:15.345Z,0.00
2022-09-14T01:17:10.397Z,0.00
2022-09-14T01:18:05.541Z,0.00
2022-09-14T01:19:01.344Z,0.00
2022-09-14T01:19:56.479Z,0.00
2022-09-14T01:20:52.266Z,0.00
2022-09-14T01:21:47.476Z,0.00
2022-09-14T01:22:42.810Z,0.00
2022-09-14T01:23:38.586Z,0.00
2022-09-14T01:24:33.766Z,0.00
2022-09-14T01:25:28.962Z,0.00
2022-09-14T01:26:25.314Z,0.00
2022-09-14T01:27:20.612Z,0.00
2022-09-14T01:28:16.405Z,0.00
2022-09-14T01:29:11.633Z,0.00
2022-09-14T01:30:06.743Z,0.00
2022-09-14T01:31:02.553Z,0.00
2022-09-14T01:31:57.873Z,0.00
2022-09-14T01:32:53.795Z,0.00
2022-09-14T01:33:48.937Z,0.00
2022-09-14T01:34:44.053Z,0.00
2022-09-14T01:35:39.161Z,0.00
2022-09-14T01:36:34.390Z,0.00
2022-09-14T01:37:30.842Z,0.00
2022-09-14T01:38:26.113Z,0.00
2022-09-14T01:39:21.757Z,0.00
2022-09-14T01:40:17.024Z,0.00
2022-09-14T01:41:12.156Z,0.00
2022-09-14T01:42:07.940Z,0.00
2022-09-14T01:43:03.190Z,0.00
2022-09-14T01:43:59.133Z,0.00
2022-09-14T01:44:54.068Z,0.00
2022-09-14T01:45:49.572Z,0.00
2022-09-14T01:46:45.089Z,0.00
2022-09-14T01:47:40.220Z,0.00
2022-09-14T01:48:35.427Z,0.00
2022-09-14T01:49:31.788Z,0.00
2022-09-14T01:50:26.901Z,0.00
2022-09-14T01:51:22.672Z,0.00
2022-09-14T01:52:17.887Z,0.00
2022-09-14T01:53:13.087Z,0.00
2022-09-14T01:54:08.304Z,0.00
2022-09-14T01:55:03.618Z,0.00
2022-09-14T01:55:58.685Z,0.00
2022-09-14T01:56:54.035Z,0.00
2022-09-14T01:57:49.705Z,0.00
2022-09-14T01:58:44.946Z,0.00
2022-09-14T01:59:40.041Z,0.00
2022-09-14T02:00:36.054Z,0.00
2022-09-14T02:01:31.162Z,0.00
2022-09-14T02:02:26.217Z,0.00
2022-09-14T02:03:21.285Z,0.00
2022-09-14T02:04:16.363Z,0.00
2022-09-14T02:05:11.524Z,0.00
2022-09-14T02:06:06.515Z,0.00
2022-09-14T02:07:01.622Z,0.00
2022-09-14T02:07:56.728Z,0.00
2022-09-14T02:08:51.792Z,0.00
2022-09-14T02:09:46.912Z,0.00
2022-09-14T02:10:42.126Z,0.00
2022-09-14T02:11:37.352Z,0.00
2022-09-14T02:12:32.441Z,0.00
2022-09-14T02:13:27.551Z,0.00
2022-09-14T02:14:22.650Z,0.00
2022-09-14T02:15:17.772Z,0.00
2022-09-14T02:16:13.004Z,0.00
2022-09-14T02:17:08.110Z,0.00
2022-09-14T02:18:03.309Z,0.00
2022-09-14T02:18:58.512Z,0.00
2022-09-14T02:19:53.649Z,0.00
2022-09-14T02:20:48.759Z,0.00
2022-09-14T02:21:43.782Z,0.00
2022-09-14T02:22:38.888Z,0.00
2022-09-14T02:23:33.893Z,0.00
2022-09-14T02:24:31.543Z,0.00
2022-09-14T02:25:26.607Z,0.00
2022-09-14T02:26:21.760Z,0.00
2022-09-14T02:27:16.740Z,0.00
2022-09-14T02:28:11.739Z,0.00
2022-09-14T02:29:06.810Z,0.00
2022-09-14T02:30:01.927Z,0.00
2022-09-14T02:30:57.127Z,0.00
2022-09-14T02:31:52.271Z,0.00
2022-09-14T02:32:47.339Z,0.00
2022-09-14T02:33:42.328Z,0.00
2022-09-14T02:34:37.448Z,0.00
2022-09-14T02:35:32.438Z,0.00
2022-09-14T02:36:27.693Z,0.00
2022-09-14T02:37:22.694Z,0.00
2022-09-14T02:38:18.486Z,0.00
2022-09-14T02:39:13.633Z,0.00
2022-09-14T02:40:09.516Z,0.00
2022-09-14T02:41:04.607Z,0.00
2022-09-14T02:42:00.036Z,0.00
2022-09-14T02:42:55.833Z,0.00
2022-09-14T02:43:50.953Z,0.00
2022-09-14T02:44:46.163Z,0.00
2022-09-14T02:45:42.502Z,0.00
2022-09-14T02:46:37.815Z,0.00
2022-09-14T02:47:33.651Z,0.00
2022-09-14T02:48:28.751Z,0.00
2022-09-14T02:49:23.855Z,0.00
2022-09-14T02:50:19.665Z,0.00
2022-09-14T02:51:14.905Z,0.00
2022-09-14T02:52:10.830Z,0.00
2022-09-14T02:53:05.949Z,0.00
2022-09-14T02:54:01.071Z,0.00
2022-09-14T02:54:56.925Z,0.00
2022-09-14T02:55:52.203Z,0.00
2022-09-14T02:56:47.611Z,0.00
2022-09-14T02:57:43.744Z,0.00
2022-09-14T02:58:39.054Z,0.00
2022-09-14T02:59:34.777Z,0.00
2022-09-14T03:00:30.070Z,0.00
2022-09-14T03:01:25.388Z,0.00
2022-09-14T03:02:21.127Z,0.00
2022-09-14T03:03:16.296Z,0.00
2022-09-14T03:04:12.111Z,0.00
2022-09-14T03:05:07.316Z,0.00
2022-09-14T03:06:02.705Z,0.00
2022-09-14T03:06:58.359Z,0.00
2022-09-14T03:07:53.605Z,0.00
2022-09-14T03:08:48.729Z,0.00
2022-09-14T03:09:45.188Z,0.00
2022-09-14T03:10:40.448Z,0.00
2022-09-14T03:11:36.229Z,0.00
2022-09-14T03:12:31.435Z,0.00
2022-09-14T03:13:26.548Z,0.00
2022-09-14T03:14:22.363Z,0.00
2022-09-14T03:15:17.483Z,0.00
2022-09-14T03:16:13.287Z,0.00
2022-09-14T03:17:08.385Z,0.00
2022-09-14T03:18:03.653Z,0.00
2022-09-14T03:18:59.313Z,0.00
2022-09-14T03:19:54.463Z,0.00
2022-09-14T03:20:49.666Z,0.00
2022-09-14T03:21:44.877Z,0.00
2022-09-14T03:22:40.014Z,0.00
2022-09-14T03:23:35.804Z,0.00
2022-09-14T03:24:30.956Z,0.00
2022-09-14T03:25:26.757Z,0.00
2022-09-14T03:26:21.961Z,0.00
2022-09-14T03:27:17.245Z,0.00
2022-09-14T03:28:13.029Z,0.00
2022-09-14T03:29:08.310Z,0.00
2022-09-14T03:30:03.506Z,0.00
2022-09-14T03:30:59.881Z,0.00
2022-09-14T03:31:55.180Z,0.00
2022-09-14T03:32:50.831Z,0.00
2022-09-14T03:33:46.059Z,0.00
2022-09-14T03:34:41.178Z,0.00
2022-09-14T03:35:37.010Z,0.00
2022-09-14T03:36:32.273Z,0.00
2022-09-14T03:37:27.478Z,0.00
2022-09-14T03:38:22.729Z,0.00
2022-09-14T03:39:17.792Z,0.00
2022-09-14T03:40:12.960Z,0.00
2022-09-14T03:41:07.970Z,0.00
2022-09-14T03:42:02.949Z,0.00
2022-09-14T03:42:58.066Z,0.00
2022-09-14T03:43:53.167Z,0.00
2022-09-14T03:44:48.266Z,0.00
2022-09-14T03:45:43.375Z,0.00
2022-09-14T03:46:38.443Z,0.00
2022-09-14T03:47:33.446Z,0.00
2022-09-14T03:48:28.554Z,0.00
2022-09-14T03:49:23.651Z,0.00
2022-09-14T03:50:18.744Z,0.00
2022-09-14T03:51:13.846Z,0.00
2022-09-14T03:52:08.939Z,0.00
2022-09-14T03:53:04.063Z,0.00
2022-09-14T03:53:59.147Z,0.00
2022-09-14T03:54:54.134Z,0.00
2022-09-14T03:55:49.203Z,0.00
2022-09-14T03:56:44.431Z,0.00
2022-09-14T03:57:39.527Z,0.00
2022-09-14T03:58:34.819Z,0.00
2022-09-14T03:59:31.663Z,0.00
2022-09-14T04:00:26.754Z,0.00
2022-09-14T04:01:22.060Z,0.00
2022-09-14T04:02:17.159Z,0.00
2022-09-14T04:03:12.403Z,0.00
2022-09-14T04:04:07.623Z,0.00
2022-09-14T04:05:02.742Z,0.00
2022-09-14T04:05:57.981Z,0.00
2022-09-14T04:06:53.909Z,0.00
2022-09-14T04:07:49.004Z,0.00
2022-09-14T04:08:44.153Z,0.00
2022-09-14T04:09:39.959Z,0.00
2022-09-14T04:10:35.202Z,0.00
2022-09-14T04:11:31.129Z,0.00
2022-09-14T04:12:26.222Z,0.00
2022-09-14T04:13:21.595Z,0.00
2022-09-14T04:14:17.450Z,0.00
2022-09-14T04:15:12.683Z,0.00
2022-09-14T04:16:08.149Z,0.00
2022-09-14T04:17:04.127Z,0.00
2022-09-14T04:17:59.411Z,0.00
2022-09-14T04:18:55.226Z,0.00
2022-09-14T04:19:50.452Z,0.00
2022-09-14T04:20:45.698Z,0.00
2022-09-14T04:21:41.388Z,0.00
2022-09-14T04:22:36.627Z,1.00
2022-09-14T04:23:32.449Z,1.00
2022-09-14T04:24:30.414Z,1.00
2022-09-14T04:25:23.015Z,1.00
2022-09-14T04:26:18.695Z,1.00
2022-09-14T04:27:13.946Z,1.00
2022-09-14T04:28:20.217Z,1.00
2022-09-14T04:29:06.445Z,1.00
2022-09-14T04:30:00.658Z,2.00
2022-09-14T04:30:56.497Z,3.00
2022-09-14T04:31:51.572Z,3.00
2022-09-14T04:32:46.696Z,3.00
2022-09-14T04:33:42.582Z,3.00
2022-09-14T04:34:37.712Z,4.00
2022-09-14T04:35:33.538Z,5.00
2022-09-14T04:36:28.791Z,6.00
2022-09-14T04:37:23.922Z,7.00
2022-09-14T04:38:19.562Z,9.00
2022-09-14T04:39:14.731Z,11.00
2022-09-14T04:40:09.957Z,12.00
2022-09-14T04:41:06.285Z,13.00
2022-09-14T04:42:01.562Z,14.00
2022-09-14T04:42:57.402Z,15.00
2022-09-14T04:43:52.559Z,15.00
2022-09-14T04:44:47.731Z,17.00
2022-09-14T04:45:43.475Z,18.00
2022-09-14T04:46:43.470Z,19.00
2022-09-14T04:47:35.690Z,22.00
2022-09-14T04:48:29.802Z,26.00
2022-09-14T04:49:25.089Z,29.00
2022-09-14T04:50:21.779Z,34.00
2022-09-14T04:51:16.838Z,40.00
2022-09-14T04:52:12.242Z,47.00
2022-09-14T04:53:08.376Z,61.00
2022-09-14T04:54:03.668Z,68.00
2022-09-14T04:54:59.528Z,78.00
2022-09-14T04:55:54.830Z,82.00
2022-09-14T04:56:50.146Z,93.00
2022-09-14T04:57:45.794Z,106.00
2022-09-14T04:58:41.018Z,115.00
2022-09-14T04:59:36.866Z,96.00
2022-09-14T05:00:32.055Z,118.00
2022-09-14T05:01:27.542Z,166.00
2022-09-14T05:02:23.391Z,230.00
2022-09-14T05:03:18.662Z,292.00
2022-09-14T05:04:13.974Z,332.00
2022-09-14T05:05:10.272Z,377.00
2022-09-14T05:06:05.563Z,392.00
2022-09-14T05:07:00.804Z,390.00
2022-09-14T05:07:56.080Z,432.00
2022-09-14T05:08:52.035Z,438.00
2022-09-14T05:09:47.201Z,489.00
2022-09-14T05:10:43.013Z,556.00
2022-09-14T05:11:38.373Z,553.00
2022-09-14T05:12:33.771Z,527.00
2022-09-14T05:13:29.503Z,480.00
2022-09-14T05:14:24.817Z,461.00
2022-09-14T05:15:20.152Z,423.00
2022-09-14T05:16:16.537Z,431.00
2022-09-14T05:17:11.783Z,431.00
2022-09-14T05:18:07.502Z,493.00
2022-09-14T05:19:02.782Z,499.00
2022-09-14T05:19:58.071Z,525.00
2022-09-14T05:20:53.873Z,516.00
2022-09-14T05:21:49.164Z,508.00
2022-09-14T05:22:44.988Z,497.00
2022-09-14T05:23:40.220Z,523.00
2022-09-14T05:24:35.483Z,516.00
2022-09-14T05:25:30.747Z,431.00
2022-09-14T05:26:26.044Z,379.00
2022-09-14T05:27:21.318Z,326.00
2022-09-14T05:28:16.606Z,331.00
2022-09-14T05:29:12.458Z,352.00
2022-09-14T05:30:07.740Z,372.00
2022-09-14T05:31:03.131Z,392.00
2022-09-14T05:31:58.932Z,427.00
2022-09-14T05:32:57.521Z,432.00
2022-09-14T05:33:49.684Z,502.00
2022-09-14T05:34:44.969Z,531.00
2022-09-14T05:35:39.996Z,531.00
2022-09-14T05:36:35.076Z,557.00
2022-09-14T05:37:30.136Z,529.00
2022-09-14T05:38:25.138Z,539.00
2022-09-14T05:39:23.338Z,493.00
2022-09-14T05:40:15.317Z,463.00
2022-09-14T05:41:10.287Z,495.00
2022-09-14T05:42:05.435Z,526.00
2022-09-14T05:43:00.462Z,601.00
2022-09-14T05:43:55.603Z,713.00
2022-09-14T05:44:50.594Z,819.00
2022-09-14T05:45:45.789Z,981.00
2022-09-14T05:46:40.939Z,1059.00
2022-09-14T05:47:39.125Z,1297.00
2022-09-14T05:48:31.183Z,1403.00
2022-09-14T05:49:26.267Z,1593.00
2022-09-14T05:50:21.342Z,1715.00
2022-09-14T05:51:19.967Z,1731.00
2022-09-14T05:52:15.153Z,1705.00
2022-09-14T05:53:10.184Z,1615.00
2022-09-14T05:54:05.253Z,1592.00
2022-09-14T05:55:00.274Z,1542.00
2022-09-14T05:55:55.325Z,1453.00
2022-09-14T05:56:50.403Z,1255.00
2022-09-14T05:57:45.481Z,1299.00
2022-09-14T05:58:40.671Z,1214.00
2022-09-14T05:59:36.129Z,1306.00
2022-09-14T06:00:31.340Z,1444.00
2022-09-14T06:01:26.793Z,1474.00
2022-09-14T06:02:22.132Z,1572.00
2022-09-14T06:03:17.638Z,1651.00
2022-09-14T06:04:12.977Z,1739.00
2022-09-14T06:05:08.262Z,1880.00
2022-09-14T06:06:03.549Z,1969.00
2022-09-14T06:07:17.381Z,2057.00
2022-09-14T06:07:55.346Z,2038.00
2022-09-14T06:08:49.799Z,2061.00
2022-09-14T06:09:45.356Z,2194.00
2022-09-14T06:10:40.894Z,2287.00
2022-09-14T06:11:36.109Z,2541.00
2022-09-14T06:12:32.055Z,2695.00
2022-09-14T06:13:27.427Z,2997.00
2022-09-14T06:14:26.636Z,3392.00
2022-09-14T06:15:21.924Z,3620.00
2022-09-14T06:16:17.193Z,4015.00
2022-09-14T06:17:12.586Z,4350.00
2022-09-14T06:18:08.071Z,4639.00
2022-09-14T06:19:03.434Z,4990.00
2022-09-14T06:20:03.549Z,5131.00
2022-09-14T06:20:55.197Z,5410.00
2022-09-14T06:21:49.647Z,5489.00
2022-09-14T06:22:45.147Z,5620.00
2022-09-14T06:23:40.451Z,5204.00
2022-09-14T06:24:35.792Z,5414.00
2022-09-14T06:25:31.134Z,5134.00
2022-09-14T06:26:26.666Z,4998.00
2022-09-14T06:27:21.923Z,4826.00
2022-09-14T06:28:17.292Z,4577.00
2022-09-14T06:29:12.705Z,4589.00
2022-09-14T06:30:08.069Z,4740.00
2022-09-14T06:31:03.552Z,4974.00
2022-09-14T06:31:58.928Z,5008.00
2022-09-14T06:32:54.144Z,5393.00
2022-09-14T06:33:49.514Z,5655.00
2022-09-14T06:34:44.910Z,5800.00
2022-09-14T06:35:40.269Z,5855.00
2022-09-14T06:36:35.743Z,6156.00
2022-09-14T06:37:31.060Z,6148.00
2022-09-14T06:38:26.407Z,6643.00
2022-09-14T06:39:21.801Z,6386.00
2022-09-14T06:40:17.317Z,6564.00
2022-09-14T06:41:12.527Z,6738.00
2022-09-14T06:42:07.953Z,6730.00
2022-09-14T06:43:03.459Z,7103.00
2022-09-14T06:43:58.670Z,7138.00
2022-09-14T06:44:54.077Z,7018.00
2022-09-14T06:45:49.460Z,7184.00
2022-09-14T06:46:47.477Z,7002.00
2022-09-14T06:47:39.578Z,6810.00
2022-09-14T06:48:34.658Z,6583.00
2022-09-14T06:49:29.759Z,6761.00
2022-09-14T06:50:24.946Z,6968.00
2022-09-14T06:51:19.890Z,6939.00
2022-09-14T06:52:14.897Z,7022.00
2022-09-14T06:53:11.166Z,7325.00
2022-09-14T06:54:06.121Z,7294.00
2022-09-14T06:55:01.354Z,7441.00
2022-09-14T06:55:56.465Z,7729.00
2022-09-14T06:56:51.564Z,7675.00
2022-09-14T06:57:46.784Z,7850.00
2022-09-14T06:58:41.735Z,8035.00
2022-09-14T06:59:36.863Z,8161.00
2022-09-14T07:00:32.055Z,8026.00
2022-09-14T07:01:27.431Z,8200.00
2022-09-14T07:02:22.851Z,8154.00
2022-09-14T07:03:18.163Z,8176.00
2022-09-14T07:04:13.424Z,8246.00
2022-09-14T07:05:08.776Z,8213.00
2022-09-14T07:06:04.129Z,8244.00
2022-09-14T07:06:59.521Z,8246.00
2022-09-14T07:07:54.887Z,8514.00
2022-09-14T07:08:50.485Z,8841.00
2022-09-14T07:09:45.605Z,8957.00
2022-09-14T07:10:40.929Z,9210.00
2022-09-14T07:11:36.391Z,9468.00
2022-09-14T07:12:33.148Z,9542.00
2022-09-14T07:13:28.540Z,9641.00
2022-09-14T07:14:23.936Z,9931.00
2022-09-14T07:15:19.325Z,10014.00
2022-09-14T07:16:15.150Z,10414.00
2022-09-14T07:17:10.574Z,10411.00
2022-09-14T07:18:07.995Z,10753.00
2022-09-14T07:19:03.319Z,11376.00
2022-09-14T07:19:58.717Z,11738.00
2022-09-14T07:20:54.161Z,12189.00
2022-09-14T07:21:49.592Z,12457.00
2022-09-14T07:22:44.582Z,12697.00
2022-09-14T07:23:39.631Z,12323.00
2022-09-14T07:24:34.613Z,12930.00
2022-09-14T07:25:29.648Z,12971.00
2022-09-14T07:26:24.761Z,13412.00
2022-09-14T07:27:19.956Z,13994.00
2022-09-14T07:28:14.857Z,14388.00
2022-09-14T07:29:10.266Z,14028.00
2022-09-14T07:30:05.259Z,13984.00
2022-09-14T07:31:00.347Z,13731.00
2022-09-14T07:31:55.308Z,14796.00
2022-09-14T07:32:50.436Z,14227.00
2022-09-14T07:33:45.444Z,14233.00
2022-09-14T07:34:40.571Z,14870.00
2022-09-14T07:35:35.639Z,16240.00
2022-09-14T07:36:34.589Z,14357.00
2022-09-14T07:37:25.625Z,14071.00
2022-09-14T07:38:30.727Z,14212.00
2022-09-14T07:39:16.748Z,14208.00
2022-09-14T07:40:11.034Z,15008.00
2022-09-14T07:41:06.376Z,15345.00
2022-09-14T07:42:01.912Z,15847.00
2022-09-14T07:42:57.812Z,16768.00
2022-09-14T07:43:52.756Z,16976.00
2022-09-14T07:44:48.174Z,19024.00
2022-09-14T07:45:43.749Z,19136.00
2022-09-14T07:46:39.145Z,20128.00
2022-09-14T07:47:34.552Z,20912.00
2022-09-14T07:48:30.181Z,22880.00
2022-09-14T07:49:25.592Z,22904.00
2022-09-14T07:50:21.236Z,26064.00
2022-09-14T07:51:16.443Z,24264.00
2022-09-14T07:52:15.542Z,21112.00
2022-09-14T07:53:10.944Z,17088.00
2022-09-14T07:54:06.357Z,13329.00
2022-09-14T07:55:01.624Z,11663.00
2022-09-14T07:55:57.035Z,10632.00
2022-09-14T07:56:52.453Z,10033.00
2022-09-14T07:57:56.094Z,9853.00
2022-09-14T07:58:44.468Z,10275.00
2022-09-14T07:59:38.650Z,10650.00
2022-09-14T08:00:34.018Z,11023.00
2022-09-14T08:01:29.488Z,12246.00
2022-09-14T08:02:24.926Z,14073.00
2022-09-14T08:03:20.456Z,13915.00
2022-09-14T08:04:15.867Z,13798.00
2022-09-14T08:05:11.307Z,15461.00
2022-09-14T08:06:06.275Z,18584.00
2022-09-14T08:07:01.299Z,22224.00
2022-09-14T08:07:56.359Z,22360.00
2022-09-14T08:08:51.477Z,22960.00
2022-09-14T08:09:46.579Z,26336.00
2022-09-14T08:10:41.574Z,30248.00
2022-09-14T08:11:36.646Z,34104.00
2022-09-14T08:12:31.688Z,36064.00
2022-09-14T08:13:26.768Z,33944.00
2022-09-14T08:14:21.872Z,35752.00
2022-09-14T08:15:18.674Z,39016.00
2022-09-14T08:16:13.796Z,34768.00
2022-09-14T08:17:08.764Z,39160.00
2022-09-14T08:18:03.826Z,35088.00
2022-09-14T08:18:59.705Z,38456.00
2022-09-14T08:19:55.074Z,38672.00
2022-09-14T08:20:50.524Z,35848.00
2022-09-14T08:21:47.470Z,34808.00
2022-09-14T08:22:41.505Z,37272.00
2022-09-14T08:23:36.914Z,39648.00
2022-09-14T08:24:32.324Z,37976.00
2022-09-14T08:25:27.729Z,40880.00
2022-09-14T08:26:23.385Z,40720.00
2022-09-14T08:27:18.890Z,42488.00
2022-09-14T08:28:14.332Z,41512.00
2022-09-14T08:29:09.761Z,41496.00
2022-09-14T08:30:05.167Z,42008.00
2022-09-14T08:31:00.626Z,41584.00
2022-09-14T08:31:56.141Z,38264.00
2022-09-14T08:32:51.588Z,41464.00
2022-09-14T08:33:47.184Z,39008.00
2022-09-14T08:34:42.499Z,35328.00
2022-09-14T08:35:56.949Z,33384.00
2022-09-14T08:36:34.507Z,36432.00
2022-09-14T08:37:28.840Z,35144.00
2022-09-14T08:38:24.528Z,35640.00
2022-09-14T08:39:20.010Z,35048.00
2022-09-14T08:40:15.475Z,34288.00
2022-09-14T08:41:10.370Z,28144.00
2022-09-14T08:42:05.422Z,37968.00
2022-09-14T08:43:00.478Z,37792.00
2022-09-14T08:43:55.550Z,40096.00
2022-09-14T08:44:50.601Z,41472.00
2022-09-14T08:45:45.632Z,41680.00
2022-09-14T08:46:40.688Z,43856.00
2022-09-14T08:47:35.693Z,43744.00
2022-09-14T08:48:30.705Z,47488.00
2022-09-14T08:49:25.828Z,47592.00
2022-09-14T08:50:20.813Z,41632.00
2022-09-14T08:51:15.917Z,50312.00
2022-09-14T08:52:11.053Z,43656.00
2022-09-14T08:53:06.146Z,29336.00
2022-09-14T08:54:02.216Z,33008.00
2022-09-14T08:54:57.279Z,18528.00
2022-09-14T08:55:52.282Z,18720.00
2022-09-14T08:56:47.360Z,33448.00
2022-09-14T08:57:42.426Z,49024.00
2022-09-14T08:58:44.019Z,25736.00
2022-09-14T08:59:33.577Z,21432.00
2022-09-14T09:00:27.583Z,31040.00
2022-09-14T09:01:22.734Z,35608.00
2022-09-14T09:02:17.785Z,39992.00
2022-09-14T09:03:12.845Z,43664.00
2022-09-14T09:04:08.957Z,42032.00
2022-09-14T09:05:04.574Z,46336.00
2022-09-14T09:05:59.944Z,44640.00
2022-09-14T09:06:55.364Z,44688.00
2022-09-14T09:07:50.874Z,51496.00
2022-09-14T09:08:46.403Z,41592.00
2022-09-14T09:09:41.802Z,43024.00
2022-09-14T09:10:37.304Z,36832.00
2022-09-14T09:11:32.945Z,38528.00
2022-09-14T09:12:28.323Z,40400.00
2022-09-14T09:13:23.712Z,36064.00
2022-09-14T09:14:19.132Z,40032.00
2022-09-14T09:15:14.674Z,33624.00
2022-09-14T09:16:10.242Z,30640.00
2022-09-14T09:17:06.203Z,28776.00
2022-09-14T09:18:01.692Z,26216.00
2022-09-14T09:18:57.363Z,27280.00
2022-09-14T09:19:52.783Z,27984.00
2022-09-14T09:20:48.317Z,28064.00
2022-09-14T09:21:43.782Z,27736.00
2022-09-14T09:22:38.896Z,27024.00
2022-09-14T09:23:33.893Z,21792.00
2022-09-14T09:24:29.002Z,17600.00
2022-09-14T09:25:24.028Z,18672.00
2022-09-14T09:26:19.140Z,26024.00
2022-09-14T09:27:14.263Z,20160.00
2022-09-14T09:28:09.530Z,19320.00
2022-09-14T09:29:04.472Z,18488.00
2022-09-14T09:30:02.921Z,20808.00
2022-09-14T09:30:58.011Z,23032.00
2022-09-14T09:31:53.156Z,19760.00
2022-09-14T09:32:48.129Z,27736.00
2022-09-14T09:33:43.294Z,28056.00
2022-09-14T09:34:38.318Z,34920.00
2022-09-14T09:35:33.322Z,27488.00
2022-09-14T09:36:28.547Z,26432.00
2022-09-14T09:37:23.794Z,32872.00
2022-09-14T09:38:18.933Z,25288.00
2022-09-14T09:39:14.052Z,18176.00
2022-09-14T09:40:09.726Z,17600.00
2022-09-14T09:41:05.205Z,15819.00
2022-09-14T09:42:00.828Z,19120.00
2022-09-14T09:42:56.187Z,20888.00
2022-09-14T09:43:51.477Z,37712.00
2022-09-14T09:44:46.968Z,42928.00
2022-09-14T09:45:42.348Z,54632.00
2022-09-14T09:46:37.745Z,53840.00
2022-09-14T09:47:33.261Z,54360.00
2022-09-14T09:48:28.731Z,48048.00
2022-09-14T09:49:24.215Z,53272.00
2022-09-14T09:50:19.705Z,59864.00
2022-09-14T09:51:15.273Z,59808.00
2022-09-14T09:52:10.786Z,58968.00
2022-09-14T09:53:09.984Z,52392.00
2022-09-14T09:54:05.455Z,50040.00
2022-09-14T09:55:00.831Z,53176.00
2022-09-14T09:55:56.358Z,37824.00
2022-09-14T09:56:51.982Z,26096.00
2022-09-14T09:57:47.378Z,33048.00
2022-09-14T09:58:42.915Z,57448.00
2022-09-14T09:59:38.511Z,53048.00
2022-09-14T10:00:33.798Z,55648.00
2022-09-14T10:01:29.161Z,24064.00
2022-09-14T10:02:24.510Z,58552.00
2022-09-14T10:03:20.084Z,38864.00
2022-09-14T10:04:15.477Z,57232.00
2022-09-14T10:05:10.970Z,55600.00
2022-09-14T10:06:06.468Z,45024.00
2022-09-14T10:07:01.482Z,42880.00
2022-09-14T10:07:56.450Z,52704.00
2022-09-14T10:08:51.487Z,53824.00
2022-09-14T10:09:46.483Z,51568.00
2022-09-14T10:10:41.593Z,49080.00
2022-09-14T10:11:36.633Z,53952.00
2022-09-14T10:12:31.735Z,57384.00
2022-09-14T10:13:26.733Z,56152.00
2022-09-14T10:14:21.832Z,55944.00
2022-09-14T10:15:16.939Z,59504.00
2022-09-14T10:16:14.366Z,59256.00
2022-09-14T10:17:09.316Z,58072.00
2022-09-14T10:18:04.486Z,53176.00
2022-09-14T10:18:59.496Z,53944.00
2022-09-14T10:19:54.853Z,56208.00
2022-09-14T10:20:50.346Z,48816.00
2022-09-14T10:21:45.770Z,54256.00
2022-09-14T10:22:41.254Z,49512.00
2022-09-14T10:23:37.124Z,48096.00
2022-09-14T10:24:32.377Z,48272.00
2022-09-14T10:25:27.910Z,46328.00
2022-09-14T10:26:23.411Z,44656.00
2022-09-14T10:27:18.802Z,42240.00
2022-09-14T10:28:14.280Z,33280.00
2022-09-14T10:29:09.826Z,36224.00
2022-09-14T10:30:05.312Z,33376.00
2022-09-14T10:31:01.044Z,38752.00
2022-09-14T10:31:56.210Z,48264.00
2022-09-14T10:32:51.310Z,48720.00
2022-09-14T10:33:46.421Z,52496.00
2022-09-14T10:34:41.564Z,52664.00
2022-09-14T10:35:36.846Z,57448.00
2022-09-14T10:36:31.629Z,30360.00
2022-09-14T10:37:26.673Z,30656.00
2022-09-14T10:38:21.771Z,47696.00
2022-09-14T10:39:16.886Z,49256.00
2022-09-14T10:40:12.016Z,48816.00
2022-09-14T10:41:07.043Z,44800.00
2022-09-14T10:42:02.013Z,37944.00
2022-09-14T10:42:57.087Z,35488.00
2022-09-14T10:43:52.206Z,28576.00
2022-09-14T10:44:47.359Z,31944.00
2022-09-14T10:45:42.720Z,24808.00
2022-09-14T10:46:38.538Z,32336.00
2022-09-14T10:47:34.019Z,23920.00
2022-09-14T10:48:29.415Z,22144.00
2022-09-14T10:49:24.839Z,19792.00
2022-09-14T10:50:20.447Z,18176.00
2022-09-14T10:51:15.919Z,17840.00
2022-09-14T10:52:10.975Z,18240.00
2022-09-14T10:53:06.039Z,20192.00
2022-09-14T10:54:01.117Z,20512.00
2022-09-14T10:54:57.466Z,21752.00
2022-09-14T10:55:52.449Z,23528.00
2022-09-14T10:56:47.587Z,32504.00
2022-09-14T10:57:42.599Z,38360.00
2022-09-14T10:58:37.710Z,32552.00
2022-09-14T10:59:32.728Z,29104.00
2022-09-14T11:00:27.706Z,29416.00
2022-09-14T11:01:22.895Z,30072.00
2022-09-14T11:02:17.937Z,26112.00
2022-09-14T11:03:12.997Z,25792.00
2022-09-14T11:04:08.135Z,25064.00
2022-09-14T11:05:04.497Z,24024.00
2022-09-14T11:05:59.993Z,21624.00
2022-09-14T11:06:55.625Z,19480.00
2022-09-14T11:07:51.234Z,18200.00
2022-09-14T11:08:46.848Z,17848.00
2022-09-14T11:09:42.263Z,17904.00
2022-09-14T11:10:37.613Z,16776.00
2022-09-14T11:11:33.255Z,17296.00
2022-09-14T11:12:28.469Z,16888.00
2022-09-14T11:13:24.072Z,17216.00
2022-09-14T11:14:19.647Z,18040.00
2022-09-14T11:15:14.966Z,18944.00
2022-09-14T11:16:10.722Z,19912.00
2022-09-14T11:17:05.914Z,20528.00
2022-09-14T11:18:01.623Z,20248.00
2022-09-14T11:18:56.982Z,19440.00
2022-09-14T11:19:52.446Z,18696.00
2022-09-14T11:20:48.059Z,17984.00
2022-09-14T11:21:43.575Z,17464.00
2022-09-14T11:22:38.966Z,18048.00
2022-09-14T11:23:34.606Z,19080.00
2022-09-14T11:24:30.060Z,19664.00
2022-09-14T11:25:25.632Z,20520.00
2022-09-14T11:26:21.110Z,20160.00
2022-09-14T11:27:17.678Z,21264.00
2022-09-14T11:28:13.139Z,20720.00
2022-09-14T11:29:08.463Z,20368.00
2022-09-14T11:30:03.937Z,20864.00